Time;durP1;ratioP1;P1;durP2;ratioP2;P2;SDS_P1;SDS_P2;PMS_P1;PMS_P2;Temp;Humidity;BMP_temperature;BMP_pressure;BME280_temperature;BME280_humidity;BME280_pressure;Samples;Min_cycle;Max_cycle;Signal;HPM_P1;HPM_P2
2022/09/29 00:01:16;;;;;;;6.13;1.00;;;;;;;;;;5035304;28;20038;-72
2022/09/29 00:03:42;;;;;;;3.95;0.80;;;;;;;;;;5035198;28;20027;-70
2022/09/29 00:06:16;;;;;;;4.55;0.73;;;;;;;;;;5034564;28;20029;-71
2022/09/29 00:08:43;;;;;;;4.47;0.90;;;;;;;;;;5034744;28;20508;-71
2022/09/29 00:11:10;;;;;;;6.72;0.80;;;;;;;;;;5035681;28;20026;-71
2022/09/29 00:13:36;;;;;;;4.30;0.68;;;;;;;;;;5034412;28;20044;-72
2022/09/29 00:16:03;;;;;;;6.25;0.93;;;;;;;;;;5034518;28;20087;-72
2022/09/29 00:18:30;;;;;;;5.07;1.00;;;;;;;;;;5034648;28;20039;-72
2022/09/29 00:21:18;;;;;;;5.97;0.90;;;;;;;;;;5034449;28;20518;-70
2022/09/29 00:23:44;;;;;;;3.28;0.63;;;;;;;;;;5034269;28;20039;-72
2022/09/29 00:26:12;;;;;;;5.47;0.90;;;;;;;;;;5033408;28;20038;-71
2022/09/29 00:28:39;;;;;;;3.55;0.95;;;;;;;;;;5033769;28;20021;-72
2022/09/29 00:31:06;;;;;;;5.82;1.15;;;;;;;;;;5034162;28;20474;-72
2022/09/29 00:33:34;;;;;;;5.82;0.98;;;;;;;;;;5034389;28;20018;-72
2022/09/29 00:36:04;;;;;;;5.28;0.90;;;;;;;;;;5034068;28;20026;-72
2022/09/29 00:38:31;;;;;;;7.53;1.08;;;;;;;;;;5034307;28;20044;-72
2022/09/29 00:40:58;;;;;;;4.30;1.02;;;;;;;;;;5034302;28;20040;-72
2022/09/29 00:43:44;;;;;;;6.57;1.08;;;;;;;;;;5033717;28;20021;-72
2022/09/29 00:46:12;;;;;;;5.50;0.95;;;;;;;;;;5030152;28;20057;-72
2022/09/29 00:48:38;;;;;;;15.00;7.18;;;;;;;;;;5033781;28;20036;-72
2022/09/29 00:51:05;;;;;;;8.00;3.30;;;;;;;;;;5033869;28;20032;-72
2022/09/29 00:53:31;;;;;;;8.85;4.25;;;;;;;;;;5033971;28;20032;-72
2022/09/29 00:56:08;;;;;;;10.30;4.90;;;;;;;;;;5033989;28;20052;-72
2022/09/29 00:59:01;;;;;;;8.63;4.65;;;;;;;;;;5033410;28;20508;-72
2022/09/29 01:01:29;;;;;;;15.75;6.78;;;;;;;;;;5032634;28;20045;-72
2022/09/29 01:03:57;;;;;;;7.53;3.33;;;;;;;;;;5033801;28;20463;-72
2022/09/29 01:06:30;;;;;;;5.13;2.22;;;;;;;;;;5033701;28;20037;-72
2022/09/29 01:09:00;;;;;;;5.53;2.40;;;;;;;;;;5033807;28;20022;-72
2022/09/29 01:11:27;;;;;;;6.90;3.40;;;;;;;;;;5032284;28;20030;-72
2022/09/29 01:13:56;;;;;;;18.90;8.20;;;;;;;;;;5033560;28;20039;-72
2022/09/29 01:16:22;;;;;;;43.90;17.83;;;;;;;;;;5033298;28;20024;-72
2022/09/29 01:18:50;;;;;;;33.35;15.57;;;;;;;;;;5033469;28;20034;-72
2022/09/29 01:21:22;;;;;;;27.67;12.85;;;;;;;;;;5033428;28;20021;-72
2022/09/29 01:23:57;;;;;;;24.73;10.60;;;;;;;;;;5033699;28;20033;-72
2022/09/29 01:26:23;;;;;;;15.18;6.30;;;;;;;;;;5033416;28;20037;-72
2022/09/29 01:28:52;;;;;;;10.77;4.13;;;;;;;;;;5033420;28;20023;-71
2022/09/29 01:31:21;;;;;;;14.98;6.50;;;;;;;;;;5033514;28;20030;-72
2022/09/29 01:33:47;;;;;;;8.02;4.32;;;;;;;;;;5033311;28;20092;-72
2022/09/29 01:36:13;;;;;;;7.05;3.10;;;;;;;;;;5033335;28;20056;-72
2022/09/29 01:38:50;;;;;;;6.15;2.75;;;;;;;;;;5033542;28;20501;-71
2022/09/29 01:41:20;;;;;;;25.30;11.82;;;;;;;;;;5032538;28;20039;-72
2022/09/29 01:43:47;;;;;;;4.68;1.88;;;;;;;;;;5033256;28;20055;-72
2022/09/29 01:46:32;;;;;;;2.35;0.82;;;;;;;;;;5032846;28;20041;-72
2022/09/29 01:49:01;;;;;;;1.58;0.60;;;;;;;;;;5033038;28;20033;-71
2022/09/29 01:51:46;;;;;;;3.15;0.73;;;;;;;;;;5033037;28;20045;-72
2022/09/29 01:54:15;;;;;;;2.47;0.85;;;;;;;;;;5049030;28;20025;-72
2022/09/29 01:56:46;;;;;;;2.58;0.75;;;;;;;;;;5032720;28;20022;-71
2022/09/29 01:59:17;;;;;;;3.88;0.98;;;;;;;;;;5033112;28;20029;-71
2022/09/29 02:01:44;;;;;;;;;;;;;;;;;;5033857;28;20029;-72
2022/09/29 02:04:19;;;;;;;3.03;0.70;;;;;;;;;;5048359;28;19905;-71
2022/09/29 02:06:49;;;;;;;1.35;0.70;;;;;;;;;;5032930;28;20034;-72
2022/09/29 02:09:20;;;;;;;2.15;0.73;;;;;;;;;;5032503;28;20053;-73
2022/09/29 02:11:50;;;;;;;6.57;3.78;;;;;;;;;;5032778;28;20091;-71
2022/09/29 02:14:22;;;;;;;3.47;2.22;;;;;;;;;;5032818;28;20029;-72
2022/09/29 02:16:52;;;;;;;2.33;1.05;;;;;;;;;;5033299;28;20026;-72
2022/09/29 02:19:20;;;;;;;3.75;1.00;;;;;;;;;;5032768;28;20032;-72
2022/09/29 02:21:47;;;;;;;11.35;2.88;;;;;;;;;;5032850;28;20029;-72
2022/09/29 02:24:13;;;;;;;19.92;9.68;;;;;;;;;;5032334;28;20022;-72
2022/09/29 02:26:40;;;;;;;13.65;7.43;;;;;;;;;;5031384;28;20041;-72
2022/09/29 02:29:07;;;;;;;7.35;3.33;;;;;;;;;;5032383;28;20389;-72
2022/09/29 02:31:36;;;;;;;6.13;2.58;;;;;;;;;;5032592;28;20428;-71
2022/09/29 02:34:02;;;;;;;3.63;1.00;;;;;;;;;;5032736;28;20021;-72
2022/09/29 02:36:32;;;;;;;7.88;2.20;;;;;;;;;;5032495;28;20028;-72
2022/09/29 02:39:05;;;;;;;4.05;1.58;;;;;;;;;;5032746;28;20477;-71
2022/09/29 02:41:34;;;;;;;5.40;1.75;;;;;;;;;;5033051;28;20028;-72
2022/09/29 02:44:03;;;;;;;1.88;1.40;;;;;;;;;;5032763;28;20029;-71
2022/09/29 02:46:30;;;;;;;2.17;1.20;;;;;;;;;;5032353;28;20071;-71
2022/09/29 02:49:17;;;;;;;3.97;1.00;;;;;;;;;;5033645;28;20018;-72
2022/09/29 02:51:45;;;;;;;3.83;0.80;;;;;;;;;;5037060;28;20037;-72
2022/09/29 02:54:31;;;;;;;1.60;0.75;;;;;;;;;;5036190;28;20042;-71
2022/09/29 02:57:12;;;;;;;2.08;1.10;;;;;;;;;;5036212;28;20022;-71
2022/09/29 02:59:44;;;;;;;3.20;1.00;;;;;;;;;;5036093;28;20017;-71
2022/09/29 03:02:11;;;;;;;1.80;0.70;;;;;;;;;;5036229;28;20083;-72
2022/09/29 03:04:38;;;;;;;1.95;1.08;;;;;;;;;;5035809;28;20080;-72
2022/09/29 03:07:04;;;;;;;1.55;0.70;;;;;;;;;;5036031;28;20031;-72
2022/09/29 03:09:30;;;;;;;5.82;1.30;;;;;;;;;;5035562;28;20029;-72
2022/09/29 03:11:57;;;;;;;1.60;0.70;;;;;;;;;;5035624;28;20045;-72
2022/09/29 03:14:23;;;;;;;4.00;0.80;;;;;;;;;;5036012;28;20405;-72
2022/09/29 03:16:50;;;;;;;1.17;0.57;;;;;;;;;;5036017;28;20033;-72
2022/09/29 03:19:16;;;;;;;0.90;0.40;;;;;;;;;;5035912;28;20032;-72
2022/09/29 03:21:42;;;;;;;1.58;0.40;;;;;;;;;;5035829;28;20016;-72
2022/09/29 03:24:09;;;;;;;3.60;0.50;;;;;;;;;;5035648;28;20581;-72
2022/09/29 03:26:35;;;;;;;3.15;0.80;;;;;;;;;;5035584;28;20042;-71
2022/09/29 03:29:02;;;;;;;3.00;0.45;;;;;;;;;;5035557;28;20026;-71
2022/09/29 03:31:28;;;;;;;2.25;0.50;;;;;;;;;;5035611;28;20100;-72
2022/09/29 03:33:54;;;;;;;4.47;0.70;;;;;;;;;;5035287;28;20026;-71
2022/09/29 03:36:21;;;;;;;2.33;0.57;;;;;;;;;;5035462;28;20033;-71
2022/09/29 03:38:47;;;;;;;1.50;0.50;;;;;;;;;;5035443;28;20585;-70
2022/09/29 03:41:14;;;;;;;2.72;0.50;;;;;;;;;;5035208;28;20029;-71
2022/09/29 03:43:41;;;;;;;2.00;0.45;;;;;;;;;;5050732;28;20028;-71
2022/09/29 03:46:07;;;;;;;3.47;0.60;;;;;;;;;;5035202;28;20034;-72
2022/09/29 03:48:34;;;;;;;4.95;0.38;;;;;;;;;;5035660;28;20021;-72
2022/09/29 03:51:00;;;;;;;1.70;0.40;;;;;;;;;;5035095;28;20091;-71
2022/09/29 03:53:27;;;;;;;4.88;0.60;;;;;;;;;;5035788;28;20021;-71
2022/09/29 03:55:53;;;;;;;1.55;0.40;;;;;;;;;;5035235;28;20030;-71
2022/09/29 03:58:19;;;;;;;2.50;0.80;;;;;;;;;;5035132;28;20028;-71
2022/09/29 04:00:47;;;;;;;3.35;0.60;;;;;;;;;;5033716;28;20043;-71
2022/09/29 04:03:13;;;;;;;3.20;0.50;;;;;;;;;;5034100;28;20025;-72
2022/09/29 04:05:40;;;;;;;2.85;0.68;;;;;;;;;;5034845;28;20044;-72
2022/09/29 04:08:06;;;;;;;3.03;0.52;;;;;;;;;;5035172;28;20013;-72
2022/09/29 04:10:36;;;;;;;2.95;0.73;;;;;;;;;;5034739;28;20030;-72
2022/09/29 04:13:03;;;;;;;3.10;0.50;;;;;;;;;;5034941;28;20041;-72
2022/09/29 04:15:29;;;;;;;1.92;0.50;;;;;;;;;;5034841;28;20075;-72
2022/09/29 04:17:56;;;;;;;3.78;0.75;;;;;;;;;;5034535;28;20402;-71
2022/09/29 04:20:22;;;;;;;1.75;0.60;;;;;;;;;;5034434;28;20035;-72
2022/09/29 04:22:48;;;;;;;2.85;0.88;;;;;;;;;;5033640;28;20036;-71
2022/09/29 04:25:15;;;;;;;5.95;1.58;;;;;;;;;;5033273;28;20051;-72
2022/09/29 04:27:41;;;;;;;2.53;1.23;;;;;;;;;;5033285;28;20029;-72
2022/09/29 04:30:08;;;;;;;4.28;1.48;;;;;;;;;;5034425;28;20040;-71
2022/09/29 04:32:34;;;;;;;3.30;1.10;;;;;;;;;;5050041;28;20508;-70
2022/09/29 04:35:00;;;;;;;3.67;1.00;;;;;;;;;;5033922;28;20037;-71
2022/09/29 04:37:27;;;;;;;1.92;0.70;;;;;;;;;;5049633;28;20021;-71
2022/09/29 04:39:53;;;;;;;2.22;0.70;;;;;;;;;;5034357;28;20096;-71
2022/09/29 04:42:20;;;;;;;2.38;0.70;;;;;;;;;;5034359;28;20032;-71
2022/09/29 04:44:46;;;;;;;2.70;0.73;;;;;;;;;;5033975;28;20039;-72
2022/09/29 04:47:13;;;;;;;3.15;0.73;;;;;;;;;;5033941;28;20037;-70
2022/09/29 04:49:39;;;;;;;3.10;0.57;;;;;;;;;;5033957;28;20025;-71
2022/09/29 04:52:06;;;;;;;6.80;1.05;;;;;;;;;;5033859;28;20487;-71
2022/09/29 04:54:33;;;;;;;2.25;0.70;;;;;;;;;;5033845;28;20022;-70
2022/09/29 04:57:00;;;;;;;2.22;0.60;;;;;;;;;;5033976;28;20043;-70
2022/09/29 04:59:27;;;;;;;4.07;1.20;;;;;;;;;;5033683;28;20026;-71
2022/09/29 05:01:53;;;;;;;1.52;1.08;;;;;;;;;;5033842;28;20036;-71
2022/09/29 05:04:19;;;;;;;1.60;1.00;;;;;;;;;;5033328;28;20026;-72
2022/09/29 05:06:46;;;;;;;0.90;0.60;;;;;;;;;;5033804;28;20045;-71
2022/09/29 05:09:12;;;;;;;3.80;1.08;;;;;;;;;;5033326;28;20029;-72
2022/09/29 05:11:38;;;;;;;2.40;1.25;;;;;;;;;;5033192;28;20051;-72
2022/09/29 05:14:05;;;;;;;3.17;1.20;;;;;;;;;;5033454;28;20042;-71
2022/09/29 05:16:31;;;;;;;5.03;1.08;;;;;;;;;;5048909;28;20017;-71
2022/09/29 05:18:58;;;;;;;2.70;0.90;;;;;;;;;;5033338;28;20086;-71
2022/09/29 05:21:24;;;;;;;3.28;0.80;;;;;;;;;;5033187;28;20025;-72
2022/09/29 05:23:51;;;;;;;2.63;0.90;;;;;;;;;;5048545;28;20478;-71
2022/09/29 05:26:17;;;;;;;5.70;1.02;;;;;;;;;;5033115;28;20387;-72
2022/09/29 05:28:45;;;;;;;2.28;0.88;;;;;;;;;;5032994;28;20131;-71
2022/09/29 05:31:11;;;;;;;3.05;1.00;;;;;;;;;;5033057;28;20032;-72
2022/09/29 05:33:38;;;;;;;2.72;0.63;;;;;;;;;;5032955;28;20029;-71
2022/09/29 05:36:06;;;;;;;3.63;0.75;;;;;;;;;;5033168;28;20033;-72
2022/09/29 05:38:34;;;;;;;6.72;2.67;;;;;;;;;;5032916;28;20504;-72
2022/09/29 05:41:03;;;;;;;6.03;3.30;;;;;;;;;;5033090;28;20500;-71
2022/09/29 05:43:30;;;;;;;8.45;4.28;;;;;;;;;;5032691;28;20033;-72
2022/09/29 05:46:01;;;;;;;8.10;4.47;;;;;;;;;;5031316;28;20041;-71
2022/09/29 05:48:29;;;;;;;8.30;4.75;;;;;;;;;;5032590;28;20018;-72
2022/09/29 05:50:56;;;;;;;8.70;3.83;;;;;;;;;;5032914;28;20033;-71
2022/09/29 05:53:22;;;;;;;9.30;4.30;;;;;;;;;;5047872;28;20028;-72
2022/09/29 05:55:49;;;;;;;7.30;3.05;;;;;;;;;;5032498;28;20025;-71
2022/09/29 05:58:15;;;;;;;4.82;1.13;;;;;;;;;;5032581;28;20390;-71
2022/09/29 06:00:42;;;;;;;7.45;1.20;;;;;;;;;;5032554;28;20033;-72
2022/09/29 06:03:08;;;;;;;6.85;1.20;;;;;;;;;;5032174;28;20486;-72
2022/09/29 06:05:37;;;;;;;4.20;1.20;;;;;;;;;;5032474;28;20086;-72
2022/09/29 06:08:04;;;;;;;4.78;1.35;;;;;;;;;;5032652;28;20022;-72
2022/09/29 06:10:30;;;;;;;3.85;1.20;;;;;;;;;;5023502;28;20409;-72
2022/09/29 06:12:57;;;;;;;5.35;1.10;;;;;;;;;;5026877;28;20448;-71
2022/09/29 06:15:23;;;;;;;5.82;1.48;;;;;;;;;;5029546;28;20053;-72
2022/09/29 06:17:57;;;;;;;4.75;1.90;;;;;;;;;;5021048;28;20025;-72
2022/09/29 06:20:23;;;;;;;6.10;2.20;;;;;;;;;;5032093;28;20033;-72
2022/09/29 06:22:50;;;;;;;6.88;2.10;;;;;;;;;;5031467;28;20009;-72
2022/09/29 06:25:16;;;;;;;7.93;1.60;;;;;;;;;;5031289;28;20034;-72
2022/09/29 06:27:43;;;;;;;4.63;1.40;;;;;;;;;;5032073;28;20036;-72
2022/09/29 06:30:11;;;;;;;3.25;1.13;;;;;;;;;;5031597;28;20028;-72
2022/09/29 06:32:38;;;;;;;3.45;0.80;;;;;;;;;;5012935;28;20030;-72
2022/09/29 06:37:50;;;;;;;2.25;1.20;;;;;;;;;;5025470;28;20040;-71
2022/09/29 06:40:19;;;;;;;4.53;2.13;;;;;;;;;;5026655;28;20022;-72
2022/09/29 06:42:45;;;;;;;5.10;2.00;;;;;;;;;;5020883;28;20014;-72
2022/09/29 06:45:12;;;;;;;2.38;1.00;;;;;;;;;;5028796;28;20033;-72
2022/09/29 06:47:38;;;;;;;5.65;1.13;;;;;;;;;;5025522;28;20034;-72
2022/09/29 06:50:05;;;;;;;8.00;1.00;;;;;;;;;;5028189;28;20025;-72
2022/09/29 06:52:32;;;;;;;16.42;6.95;;;;;;;;;;5011661;28;20030;-72
2022/09/29 06:54:58;;;;;;;12.40;5.57;;;;;;;;;;5011947;28;20014;-72
2022/09/29 06:57:25;;;;;;;9.90;3.85;;;;;;;;;;5011565;28;20022;-72
2022/09/29 06:59:51;;;;;;;6.75;2.28;;;;;;;;;;5017084;28;20010;-72
2022/09/29 07:02:18;;;;;;;7.50;1.45;;;;;;;;;;5048423;28;20505;-72
2022/09/29 07:04:46;;;;;;;6.25;2.13;;;;;;;;;;5013653;28;20030;-72
2022/09/29 07:07:13;;;;;;;5.72;1.45;;;;;;;;;;5027703;28;20021;-72
2022/09/29 07:09:39;;;;;;;3.90;1.20;;;;;;;;;;4990292;28;20030;-72
2022/09/29 07:12:05;;;;;;;3.20;0.93;;;;;;;;;;5011594;28;20115;-72
2022/09/29 07:14:31;;;;;;;4.20;0.93;;;;;;;;;;5010380;28;20036;-72
2022/09/29 07:16:59;;;;;;;5.22;0.90;;;;;;;;;;5020799;28;20025;-72
2022/09/29 07:19:25;;;;;;;3.40;0.95;;;;;;;;;;5014992;28;20021;-72
2022/09/29 07:21:52;;;;;;;4.28;0.88;;;;;;;;;;5028809;28;20494;-72
2022/09/29 07:24:18;;;;;;;7.75;3.40;;;;;;;;;;5030093;28;20025;-72
2022/09/29 07:26:45;;;;;;;7.55;1.20;;;;;;;;;;5030184;28;20044;-72
2022/09/29 07:29:11;;;;;;;9.85;1.85;;;;;;;;;;5029768;28;20374;-72
2022/09/29 07:31:39;;;;;;;14.45;1.83;;;;;;;;;;5030141;28;20067;-71
2022/09/29 07:34:05;;;;;;;7.80;1.30;;;;;;;;;;5030437;28;20024;-73
2022/09/29 07:36:32;;;;;;;5.05;1.42;;;;;;;;;;5033942;28;20083;-72
2022/09/29 07:38:58;;;;;;;6.72;1.20;;;;;;;;;;5033573;28;20501;-72
2022/09/29 07:41:25;;;;;;;8.38;2.35;;;;;;;;;;5033464;28;20029;-72
2022/09/29 07:43:52;;;;;;;4.05;1.65;;;;;;;;;;5032050;28;20360;-72
2022/09/29 07:46:18;;;;;;;4.38;1.40;;;;;;;;;;5033768;28;20056;-72
2022/09/29 07:48:44;;;;;;;9.05;1.33;;;;;;;;;;5033752;28;20490;-72
2022/09/29 07:51:12;;;;;;;3.40;1.13;;;;;;;;;;5033879;28;20029;-72
2022/09/29 07:53:39;;;;;;;2.85;1.27;;;;;;;;;;5033667;28;20025;-72
2022/09/29 07:56:07;;;;;;;7.47;1.63;;;;;;;;;;5033615;28;20059;-72
2022/09/29 07:58:33;;;;;;;3.92;1.45;;;;;;;;;;5032481;28;20032;-72
2022/09/29 08:01:00;;;;;;;9.80;4.65;;;;;;;;;;5013954;28;20059;-72
2022/09/29 08:03:28;;;;;;;5.40;2.53;;;;;;;;;;5013666;28;20552;-72
2022/09/29 08:05:56;;;;;;;4.55;1.35;;;;;;;;;;5013062;28;20041;-73
2022/09/29 08:08:24;;;;;;;8.57;3.60;;;;;;;;;;5013329;28;20025;-72
2022/09/29 08:10:50;;;;;;;3.85;0.80;;;;;;;;;;5016013;28;20029;-72
2022/09/29 08:13:17;;;;;;;1.85;0.70;;;;;;;;;;5030993;28;20059;-72
2022/09/29 08:15:44;;;;;;;5.13;1.13;;;;;;;;;;5032574;28;20045;-73
2022/09/29 08:18:10;;;;;;;2.90;1.30;;;;;;;;;;5033154;28;20448;-72
2022/09/29 08:20:36;;;;;;;2.15;1.15;;;;;;;;;;5033180;28;20030;-72
2022/09/29 08:23:03;;;;;;;9.73;1.80;;;;;;;;;;5033337;28;20039;-72
2022/09/29 08:25:29;;;;;;;1.23;0.85;;;;;;;;;;5032913;28;20032;-72
2022/09/29 08:27:55;;;;;;;2.78;1.33;;;;;;;;;;5032672;28;20022;-72
2022/09/29 08:30:22;;;;;;;2.88;1.30;;;;;;;;;;5032711;28;20488;-72
2022/09/29 08:32:52;;;;;;;2.17;1.10;;;;;;;;;;5022963;28;20033;-72
2022/09/29 08:35:18;;;;;;;3.78;1.08;;;;;;;;;;5014187;28;20026;-72
2022/09/29 08:37:44;;;;;;;3.38;1.00;;;;;;;;;;5021650;28;20514;-72
2022/09/29 08:40:11;;;;;;;3.25;0.95;;;;;;;;;;5032993;28;20029;-72
2022/09/29 08:42:37;;;;;;;3.28;1.10;;;;;;;;;;5047699;28;20068;-72
2022/09/29 08:45:06;;;;;;;3.60;0.82;;;;;;;;;;5032687;28;20029;-72
2022/09/29 08:47:38;;;;;;;2.08;0.80;;;;;;;;;;5031839;28;20429;-72
2022/09/29 08:50:14;;;;;;;4.03;0.75;;;;;;;;;;5032751;28;20028;-72
2022/09/29 08:52:42;;;;;;;3.47;0.93;;;;;;;;;;5032590;28;20029;-72
2022/09/29 08:55:09;;;;;;;1.80;0.90;;;;;;;;;;5032606;28;20013;-72
2022/09/29 08:57:36;;;;;;;3.38;1.08;;;;;;;;;;5032207;28;20033;-71
2022/09/29 09:00:07;;;;;;;2.75;0.73;;;;;;;;;;5032314;28;20025;-72
2022/09/29 09:02:42;;;;;;;3.88;0.82;;;;;;;;;;5032359;28;20107;-72
2022/09/29 09:05:12;;;;;;;2.70;0.80;;;;;;;;;;5031952;28;20040;-72
2022/09/29 09:07:38;;;;;;;2.25;0.85;;;;;;;;;;5032200;28;20030;-72
2022/09/29 09:10:13;;;;;;;8.82;1.33;;;;;;;;;;5031912;28;20022;-71
2022/09/29 09:12:42;;;;;;;4.55;0.80;;;;;;;;;;5032016;28;20055;-72
2022/09/29 09:15:24;;;;;;;1.83;0.80;;;;;;;;;;5028918;28;20494;-72
2022/09/29 09:18:19;;;;;;;3.60;0.80;;;;;;;;;;5032378;28;20039;-72
2022/09/29 09:20:53;;;;;;;4.13;0.77;;;;;;;;;;5010280;28;20407;-72
2022/09/29 09:23:45;;;;;;;5.53;1.08;;;;;;;;;;5010089;28;20034;-72
2022/09/29 09:26:12;;;;;;;1.73;0.80;;;;;;;;;;4950926;29;20043;-72
2022/09/29 09:28:41;;;;;;;3.47;1.02;;;;;;;;;;4949330;29;20582;-71
2022/09/29 09:31:16;;;;;;;2.28;0.60;;;;;;;;;;4931895;29;20098;-71
2022/09/29 09:34:00;;;;;;;4.50;0.80;;;;;;;;;;4934680;29;20035;-71
2022/09/29 09:36:30;;;;;;;3.47;0.80;;;;;;;;;;4932344;29;20525;-71
2022/09/29 09:39:02;;;;;;;2.38;0.88;;;;;;;;;;4935623;29;20036;-71
2022/09/29 09:41:29;;;;;;;4.03;1.10;;;;;;;;;;4913430;29;20432;-70
2022/09/29 09:44:02;;;;;;;5.60;0.88;;;;;;;;;;4920018;29;20043;-71
2022/09/29 09:46:35;;;;;;;3.55;0.80;;;;;;;;;;4932090;29;20061;-72
2022/09/29 09:49:05;;;;;;;11.90;1.73;;;;;;;;;;4932073;29;20465;-70
2022/09/29 09:51:31;;;;;;;6.10;1.30;;;;;;;;;;4931711;29;20035;-70
2022/09/29 09:54:01;;;;;;;5.03;1.80;;;;;;;;;;4931301;29;20552;-71
2022/09/29 09:56:34;;;;;;;5.45;3.20;;;;;;;;;;4933030;29;20517;-71
2022/09/29 09:59:01;;;;;;;7.32;1.35;;;;;;;;;;4951019;28;20543;-72
2022/09/29 10:01:27;;;;;;;5.25;1.10;;;;;;;;;;4951097;28;20399;-71
2022/09/29 10:03:54;;;;;;;5.00;0.80;;;;;;;;;;5022380;28;20041;-72
2022/09/29 10:06:20;;;;;;;4.28;0.70;;;;;;;;;;5030767;28;20510;-72
2022/09/29 10:08:47;;;;;;;3.03;1.30;;;;;;;;;;5030908;28;20023;-70
2022/09/29 10:11:16;;;;;;;4.80;0.63;;;;;;;;;;5030738;28;20033;-71
2022/09/29 10:13:42;;;;;;;1.17;0.70;;;;;;;;;;5031465;28;20041;-72
2022/09/29 10:16:09;;;;;;;1.67;0.70;;;;;;;;;;5031309;28;20047;-72
2022/09/29 10:18:43;;;;;;;8.52;1.02;;;;;;;;;;5046337;28;20028;-72
2022/09/29 10:21:34;;;;;;;0.73;0.50;;;;;;;;;;5030744;28;20037;-72
2022/09/29 10:24:00;;;;;;;1.77;0.60;;;;;;;;;;5027708;28;20696;-72
2022/09/29 10:26:28;;;;;;;2.17;0.70;;;;;;;;;;5030890;28;20438;-72
2022/09/29 10:28:58;;;;;;;1.77;0.73;;;;;;;;;;5031021;28;20025;-72
2022/09/29 10:31:32;;;;;;;3.88;0.90;;;;;;;;;;5031348;28;20037;-71
2022/09/29 10:34:23;;;;;;;2.53;0.95;;;;;;;;;;5030842;28;20083;-72
2022/09/29 10:37:12;;;;;;;4.80;0.82;;;;;;;;;;5030747;28;20505;-72
2022/09/29 10:39:39;;;;;;;2.10;0.75;;;;;;;;;;5030781;28;20052;-72
2022/09/29 10:42:15;;;;;;;4.18;0.70;;;;;;;;;;5031010;28;20026;-72
2022/09/29 10:44:43;;;;;;;2.90;0.93;;;;;;;;;;5046116;28;20029;-72
2022/09/29 10:47:14;;;;;;;3.22;0.80;;;;;;;;;;5030709;28;20036;-72
2022/09/29 10:49:40;;;;;;;2.42;1.00;;;;;;;;;;5031124;28;20021;-72
2022/09/29 10:52:16;;;;;;;2.75;1.00;;;;;;;;;;5030574;28;20034;-72
2022/09/29 10:55:12;;;;;;;2.90;0.85;;;;;;;;;;5030777;28;20032;-72
2022/09/29 10:57:38;;;;;;;2.22;0.77;;;;;;;;;;5026102;28;20037;-72
2022/09/29 11:00:05;;;;;;;2.53;0.80;;;;;;;;;;5030890;28;20480;-72
2022/09/29 11:02:34;;;;;;;1.15;0.50;;;;;;;;;;5030640;28;20079;-72
2022/09/29 11:05:19;;;;;;;0.80;0.45;;;;;;;;;;5030499;28;20504;-72
2022/09/29 11:07:47;;;;;;;0.98;0.50;;;;;;;;;;5028906;28;20525;-72
2022/09/29 11:10:34;;;;;;;1.77;0.70;;;;;;;;;;5031040;28;20433;-72
2022/09/29 11:13:20;;;;;;;1.58;0.60;;;;;;;;;;5034599;28;20056;-72
2022/09/29 11:15:46;;;;;;;0.98;0.40;;;;;;;;;;5033168;28;20051;-71
2022/09/29 11:18:33;;;;;;;1.08;0.28;;;;;;;;;;5034626;28;20037;-72
2022/09/29 11:21:19;;;;;;;5.97;0.60;;;;;;;;;;5034260;28;20018;-71
2022/09/29 11:23:50;;;;;;;0.60;0.40;;;;;;;;;;5034504;28;20059;-72
2022/09/29 11:26:36;;;;;;;3.75;0.55;;;;;;;;;;5034522;28;20037;-72
2022/09/29 11:29:03;;;;;;;1.05;0.60;;;;;;;;;;5034079;28;20513;-72
2022/09/29 11:31:39;;;;;;;0.73;0.50;;;;;;;;;;5034333;28;20029;-72
2022/09/29 11:34:24;;;;;;;0.90;0.40;;;;;;;;;;5031427;28;20070;-73
2022/09/29 11:37:08;;;;;;;1.67;0.52;;;;;;;;;;5027564;28;20049;-72
2022/09/29 11:39:35;;;;;;;0.82;0.40;;;;;;;;;;5034336;28;20033;-72
2022/09/29 11:42:09;;;;;;;1.23;0.40;;;;;;;;;;5033927;28;20028;-72
2022/09/29 11:44:47;;;;;;;1.05;0.70;;;;;;;;;;5033242;28;20021;-72
2022/09/29 11:47:20;;;;;;;1.27;0.38;;;;;;;;;;5032235;28;20035;-72
2022/09/29 11:50:13;;;;;;;1.27;0.60;;;;;;;;;;5033295;28;20029;-72
2022/09/29 11:52:55;;;;;;;0.38;0.38;;;;;;;;;;5031127;28;20041;-72
2022/09/29 11:55:29;;;;;;;1.55;0.70;;;;;;;;;;5023256;28;20037;-72
2022/09/29 11:58:02;;;;;;;1.35;0.47;;;;;;;;;;5026350;28;20044;-72
2022/09/29 12:00:49;;;;;;;2.72;0.70;;;;;;;;;;5030490;28;20029;-72
2022/09/29 12:03:22;;;;;;;2.65;0.30;;;;;;;;;;5030367;28;20033;-72
2022/09/29 12:06:01;;;;;;;2.28;0.38;;;;;;;;;;5018385;28;20045;-73
2022/09/29 12:08:39;;;;;;;4.68;0.30;;;;;;;;;;5030841;28;20022;-73
2022/09/29 12:11:15;;;;;;;0.47;0.30;;;;;;;;;;5029954;28;20037;-72
2022/09/29 12:13:55;;;;;;;1.65;0.20;;;;;;;;;;5031023;28;20080;-72
2022/09/29 12:16:28;;;;;;;1.75;0.38;;;;;;;;;;5026803;28;20047;-72
2022/09/29 12:19:15;;;;;;;0.75;0.75;;;;;;;;;;5018290;28;20043;-72
2022/09/29 12:21:43;;;;;;;1.27;0.50;;;;;;;;;;5022179;28;20036;-72
2022/09/29 12:24:12;;;;;;;0.93;0.63;;;;;;;;;;5014317;28;20039;-72
2022/09/29 12:26:40;;;;;;;0.55;0.32;;;;;;;;;;5030623;28;20045;-72
2022/09/29 12:29:21;;;;;;;1.20;0.30;;;;;;;;;;5030566;28;20041;-71
2022/09/29 12:31:49;;;;;;;4.55;0.20;;;;;;;;;;5028708;28;20028;-72
2022/09/29 12:34:21;;;;;;;0.52;0.30;;;;;;;;;;5032522;28;20032;-71
2022/09/29 12:36:52;;;;;;;0.47;0.20;;;;;;;;;;5032749;28;20026;-72
2022/09/29 12:39:18;;;;;;;0.63;0.10;;;;;;;;;;5031170;28;20029;-71
2022/09/29 12:41:49;;;;;;;0.20;0.20;;;;;;;;;;5030941;28;20029;-72
2022/09/29 12:44:25;;;;;;;0.55;0.20;;;;;;;;;;5030387;28;20463;-72
2022/09/29 12:46:53;;;;;;;0.40;0.20;;;;;;;;;;5032232;28;20517;-72
2022/09/29 12:49:26;;;;;;;1.38;0.70;;;;;;;;;;5031498;28;20034;-72
2022/09/29 12:51:53;;;;;;;0.47;0.30;;;;;;;;;;5032204;28;20040;-72
2022/09/29 12:54:28;;;;;;;1.15;0.30;;;;;;;;;;5031987;28;20018;-71
2022/09/29 12:57:14;;;;;;;2.05;0.40;;;;;;;;;;5019148;28;20519;-72
2022/09/29 12:59:49;;;;;;;0.82;0.30;;;;;;;;;;5018307;28;20036;-71
2022/09/29 13:02:30;;;;;;;0.32;0.30;;;;;;;;;;5031669;28;20100;-72
2022/09/29 13:05:20;;;;;;;1.17;0.57;;;;;;;;;;5031808;28;20030;-70
2022/09/29 13:07:52;;;;;;;0.45;0.45;;;;;;;;;;5031876;28;20071;-71
2022/09/29 13:10:19;;;;;;;0.95;0.47;;;;;;;;;;5028627;28;20025;-71
2022/09/29 13:12:45;;;;;;;0.50;0.50;;;;;;;;;;5026935;28;20096;-71
2022/09/29 13:15:24;;;;;;;0.80;0.40;;;;;;;;;;5024923;28;20041;-71
2022/09/29 13:17:50;;;;;;;0.43;0.20;;;;;;;;;;5031696;28;20037;-71
2022/09/29 13:20:25;;;;;;;0.63;0.22;;;;;;;;;;5031954;28;20022;-71
2022/09/29 13:23:10;;;;;;;0.30;0.20;;;;;;;;;;5015077;28;20037;-71
2022/09/29 13:25:55;;;;;;;1.30;0.47;;;;;;;;;;5027389;28;20039;-71
2022/09/29 13:28:42;;;;;;;2.80;1.55;;;;;;;;;;5030981;28;20017;-71
2022/09/29 13:31:10;;;;;;;1.67;1.35;;;;;;;;;;5030751;28;20031;-71
2022/09/29 13:33:37;;;;;;;1.13;0.68;;;;;;;;;;5030065;28;20029;-71
2022/09/29 13:36:03;;;;;;;0.77;0.40;;;;;;;;;;5031385;28;20477;-72
2022/09/29 13:38:32;;;;;;;0.43;0.40;;;;;;;;;;5031173;28;20039;-72
2022/09/29 13:41:14;;;;;;;0.80;0.28;;;;;;;;;;5030743;28;20031;-71
2022/09/29 13:43:49;;;;;;;0.45;0.30;;;;;;;;;;5031211;28;20018;-71
2022/09/29 13:46:30;;;;;;;0.55;0.20;;;;;;;;;;5029956;28;20099;-71
2022/09/29 13:49:12;;;;;;;0.75;0.30;;;;;;;;;;5030083;28;20040;-70
2022/09/29 13:51:58;;;;;;;0.70;0.30;;;;;;;;;;5031462;28;20404;-71
2022/09/29 13:54:40;;;;;;;0.60;0.60;;;;;;;;;;5030582;28;20025;-70
2022/09/29 13:57:18;;;;;;;0.77;0.40;;;;;;;;;;5030803;28;20029;-70
2022/09/29 13:59:54;;;;;;;2.72;1.60;;;;;;;;;;5030773;28;20027;-71
2022/09/29 14:02:26;;;;;;;1.30;1.20;;;;;;;;;;5030109;28;20405;-71
2022/09/29 14:04:54;;;;;;;0.50;0.40;;;;;;;;;;5030566;28;20033;-71
2022/09/29 14:07:39;;;;;;;1.10;0.70;;;;;;;;;;5030882;28;20042;-71
2022/09/29 14:10:16;;;;;;;0.75;0.63;;;;;;;;;;5029568;28;20021;-71
2022/09/29 14:12:44;;;;;;;1.27;1.17;;;;;;;;;;5029597;28;20051;-70
2022/09/29 14:15:13;;;;;;;1.20;0.77;;;;;;;;;;5030474;28;20029;-71
2022/09/29 14:17:43;;;;;;;1.75;1.25;;;;;;;;;;5030742;28;20047;-71
2022/09/29 14:20:14;;;;;;;1.83;1.27;;;;;;;;;;5030798;28;20117;-71
2022/09/29 14:22:43;;;;;;;7.68;1.38;;;;;;;;;;5030635;28;20445;-71
2022/09/29 14:25:09;;;;;;;5.38;1.70;;;;;;;;;;5029261;28;20022;-71
2022/09/29 14:27:48;;;;;;;0.90;0.70;;;;;;;;;;5030464;28;20540;-71
2022/09/29 14:30:15;;;;;;;3.17;0.38;;;;;;;;;;5030217;28;20029;-71
2022/09/29 14:32:50;;;;;;;0.32;0.30;;;;;;;;;;5030448;28;20409;-71
2022/09/29 14:35:19;;;;;;;0.38;0.20;;;;;;;;;;5030411;28;20032;-71
2022/09/29 14:37:47;;;;;;;4.88;0.40;;;;;;;;;;5030709;28;20025;-71
2022/09/29 14:40:29;;;;;;;0.35;0.20;;;;;;;;;;5030474;28;20028;-71
2022/09/29 14:43:02;;;;;;;4.38;0.40;;;;;;;;;;5030633;28;20043;-71
2022/09/29 14:54:22;;;;;;;0.40;0.30;;;;;;;;;;5030288;28;20024;-71
2022/09/29 14:57:14;;;;;;;2.17;1.92;;;;;;;;;;5030327;28;20029;-71
2022/09/29 14:59:56;;;;;;;1.77;1.02;;;;;;;;;;5030311;28;20029;-71
2022/09/29 15:02:27;;;;;;;1.63;0.40;;;;;;;;;;5030418;28;20082;-71
2022/09/29 15:04:54;;;;;;;1.70;0.30;;;;;;;;;;5029783;28;20444;-71
2022/09/29 15:07:22;;;;;;;2.45;0.43;;;;;;;;;;5029061;28;20046;-71
2022/09/29 15:09:52;;;;;;;1.75;0.60;;;;;;;;;;5030164;28;20516;-71
2022/09/29 15:12:27;;;;;;;1.13;0.30;;;;;;;;;;5029788;28;20050;-71
2022/09/29 15:14:54;;;;;;;1.85;0.30;;;;;;;;;;5030211;28;20029;-71